Time;durP1;ratioP1;P1;durP2;ratioP2;P2;SDS_P1;SDS_P2;PMS_P1;PMS_P2;Temp;Humidity;BMP_temperature;BMP_pressure;BME280_temperature;BME280_humidity;BME280_pressure;Samples;Min_cycle;Max_cycle;Signal;HPM_P1;HPM_P2
2022/05/20 00:01:51;;;;;;;14.68;7.18;;;;;;;;;;5013317;28;20371;-89
2022/05/20 00:04:17;;;;;;;13.82;8.07;;;;;;;;;;5015699;28;20026;-89
2022/05/20 00:06:43;;;;;;;12.85;8.00;;;;;;;;;;5016774;28;20053;-89
2022/05/20 00:09:09;;;;;;;11.48;7.25;;;;;;;;;;5021930;28;20022;-88
2022/05/20 00:11:35;;;;;;;10.82;6.95;;;;;;;;;;5019461;28;20052;-90
2022/05/20 00:14:05;;;;;;;10.95;6.85;;;;;;;;;;5035348;28;20026;-90
2022/05/20 00:16:31;;;;;;;14.50;7.65;;;;;;;;;;5018450;28;20030;-90
2022/05/20 00:18:57;;;;;;;11.75;7.35;;;;;;;;;;5018509;28;20030;-89
2022/05/20 00:21:23;;;;;;;12.18;7.72;;;;;;;;;;5034447;28;20034;-90
2022/05/20 00:23:49;;;;;;;14.07;7.97;;;;;;;;;;5018736;28;20026;-88
2022/05/20 00:26:15;;;;;;;9.25;6.93;;;;;;;;;;5015519;28;20105;-88
2022/05/20 00:28:43;;;;;;;9.70;7.20;;;;;;;;;;5022577;28;20017;-88
2022/05/20 00:31:10;;;;;;;14.25;7.55;;;;;;;;;;5018957;28;20038;-89
2022/05/20 00:33:40;;;;;;;10.70;7.13;;;;;;;;;;5018090;28;20038;-88
2022/05/20 00:36:06;;;;;;;20.17;7.78;;;;;;;;;;5017841;28;20030;-88
2022/05/20 00:38:32;;;;;;;10.13;7.40;;;;;;;;;;5018668;28;20026;-86
2022/05/20 00:40:58;;;;;;;11.57;7.95;;;;;;;;;;5017461;28;20026;-87
2022/05/20 00:43:27;;;;;;;10.27;7.65;;;;;;;;;;5020302;28;20025;-87
2022/05/20 00:45:54;;;;;;;10.32;7.43;;;;;;;;;;5020006;28;20026;-87
2022/05/20 00:48:23;;;;;;;12.02;7.93;;;;;;;;;;5019387;28;20081;-87
2022/05/20 00:50:56;;;;;;;14.65;8.93;;;;;;;;;;5021364;28;20053;-87
2022/05/20 00:53:23;;;;;;;12.27;8.27;;;;;;;;;;5023170;28;20106;-87
2022/05/20 00:55:49;;;;;;;14.27;8.13;;;;;;;;;;5022182;28;20180;-87
2022/05/20 00:58:26;;;;;;;10.60;7.88;;;;;;;;;;5023981;28;20093;-88
2022/05/20 01:00:58;;;;;;;14.40;8.35;;;;;;;;;;5023034;28;20376;-88
2022/05/20 01:03:35;;;;;;;12.07;8.65;;;;;;;;;;5038521;28;20455;-87
2022/05/20 01:06:02;;;;;;;10.93;7.95;;;;;;;;;;5024062;28;20026;-88
2022/05/20 01:08:39;;;;;;;9.48;7.40;;;;;;;;;;5038398;28;20030;-88
2022/05/20 01:11:16;;;;;;;11.05;7.35;;;;;;;;;;5020239;28;20025;-87
2022/05/20 01:13:44;;;;;;;13.50;8.38;;;;;;;;;;5016573;28;20114;-87
2022/05/20 01:16:13;;;;;;;14.30;7.65;;;;;;;;;;5015958;28;20204;-88
2022/05/20 01:18:44;;;;;;;15.57;8.88;;;;;;;;;;5016420;28;20026;-88
2022/05/20 01:21:10;;;;;;;13.98;8.50;;;;;;;;;;5015832;28;20030;-89
2022/05/20 01:23:37;;;;;;;12.07;7.88;;;;;;;;;;5015047;28;20034;-87
2022/05/20 01:26:04;;;;;;;13.95;8.32;;;;;;;;;;5015101;28;20515;-89
2022/05/20 01:28:39;;;;;;;12.80;7.97;;;;;;;;;;5015303;28;20030;-89
2022/05/20 01:31:13;;;;;;;11.20;8.48;;;;;;;;;;5014815;28;20026;-88
2022/05/20 01:33:49;;;;;;;14.05;8.73;;;;;;;;;;5015661;28;20092;-88
2022/05/20 01:36:17;;;;;;;11.10;8.02;;;;;;;;;;5013972;28;20030;-88
2022/05/20 01:38:43;;;;;;;12.75;9.10;;;;;;;;;;5014810;28;20026;-88
2022/05/20 01:41:11;;;;;;;11.07;9.23;;;;;;;;;;5014409;28;20029;-88
2022/05/20 01:43:50;;;;;;;9.77;8.55;;;;;;;;;;5025030;28;20018;-88
2022/05/20 01:46:16;;;;;;;13.43;8.48;;;;;;;;;;5035831;28;20022;-90
2022/05/20 01:48:52;;;;;;;11.05;8.63;;;;;;;;;;5036174;28;20017;-90
2022/05/20 01:51:20;;;;;;;12.15;8.43;;;;;;;;;;5035185;28;20018;-90
2022/05/20 01:54:06;;;;;;;15.13;8.75;;;;;;;;;;5039756;28;20018;-90
2022/05/20 01:56:35;;;;;;;11.95;8.88;;;;;;;;;;5039012;28;20042;-90
2022/05/20 01:59:13;;;;;;;10.85;7.95;;;;;;;;;;5040284;28;20032;-89
2022/05/20 02:02:14;;;;;;;12.13;7.63;;;;;;;;;;5039997;28;20018;-90
2022/05/20 02:04:44;;;;;;;11.40;7.95;;;;;;;;;;4945019;28;20095;-90
2022/05/20 02:07:13;;;;;;;10.23;7.13;;;;;;;;;;5026213;28;20022;-90
2022/05/20 02:09:44;;;;;;;11.00;7.40;;;;;;;;;;5039445;28;20017;-91
2022/05/20 02:12:12;;;;;;;16.23;7.68;;;;;;;;;;5039099;28;20021;-90
2022/05/20 02:14:43;;;;;;;11.98;8.05;;;;;;;;;;5040079;28;20029;-90
2022/05/20 02:17:32;;;;;;;10.13;7.57;;;;;;;;;;5040490;28;20022;-90
2022/05/20 02:20:00;;;;;;;14.38;7.80;;;;;;;;;;5027311;28;20036;-90
2022/05/20 02:22:30;;;;;;;9.55;7.55;;;;;;;;;;5040419;28;20034;-90
2022/05/20 02:24:58;;;;;;;10.52;7.68;;;;;;;;;;5022125;28;20487;-88
2022/05/20 02:27:26;;;;;;;13.70;8.15;;;;;;;;;;5016078;28;20029;-87
2022/05/20 02:30:01;;;;;;;10.48;8.18;;;;;;;;;;5038100;28;20177;-90
2022/05/20 02:32:45;;;;;;;9.73;7.80;;;;;;;;;;5039323;28;20073;-87
2022/05/20 02:35:11;;;;;;;13.30;7.95;;;;;;;;;;5038476;28;20026;-88
2022/05/20 02:37:39;;;;;;;10.90;8.45;;;;;;;;;;5033371;28;20026;-88
2022/05/20 02:40:06;;;;;;;9.77;8.27;;;;;;;;;;5019470;28;20125;-88
2022/05/20 02:42:32;;;;;;;10.40;8.35;;;;;;;;;;5014340;28;20018;-88
2022/05/20 02:44:59;;;;;;;11.68;8.10;;;;;;;;;;5013652;28;20029;-87
2022/05/20 02:47:26;;;;;;;9.85;8.07;;;;;;;;;;5015025;28;20022;-88
2022/05/20 02:49:52;;;;;;;11.82;8.10;;;;;;;;;;5013349;28;20025;-88
2022/05/20 02:52:18;;;;;;;14.63;7.75;;;;;;;;;;5014683;28;20122;-85
2022/05/20 02:54:44;;;;;;;9.90;7.50;;;;;;;;;;5013039;28;20530;-86
2022/05/20 02:57:10;;;;;;;14.18;8.55;;;;;;;;;;5015279;28;20057;-86
2022/05/20 03:05:05;;;;;;;23.70;9.10;;;;;;;;;;5013984;28;20033;-86
2022/05/20 03:07:31;;;;;;;10.65;7.63;;;;;;;;;;5013244;28;20080;-86
2022/05/20 03:09:58;;;;;;;9.63;6.80;;;;;;;;;;5012402;28;20026;-87
2022/05/20 03:12:26;;;;;;;12.25;6.80;;;;;;;;;;5014204;28;20104;-86
2022/05/20 03:14:52;;;;;;;9.07;7.40;;;;;;;;;;5014511;28;20025;-86
2022/05/20 03:17:18;;;;;;;12.48;7.68;;;;;;;;;;5013774;28;20407;-86
2022/05/20 03:19:44;;;;;;;10.35;7.15;;;;;;;;;;5013702;28;20392;-85
2022/05/20 03:22:10;;;;;;;8.50;7.13;;;;;;;;;;5014067;28;20029;-86
2022/05/20 03:24:37;;;;;;;8.50;7.25;;;;;;;;;;5012194;28;20092;-86
2022/05/20 03:27:03;;;;;;;7.90;6.50;;;;;;;;;;5013748;28;20032;-86
2022/05/20 03:29:32;;;;;;;9.93;7.63;;;;;;;;;;5014168;28;20112;-87
2022/05/20 03:31:58;;;;;;;10.25;7.35;;;;;;;;;;5012095;28;20377;-87
2022/05/20 03:34:24;;;;;;;10.18;7.82;;;;;;;;;;5012444;28;20474;-87
2022/05/20 03:36:50;;;;;;;8.48;6.90;;;;;;;;;;5013675;28;20072;-85
2022/05/20 03:39:18;;;;;;;10.55;7.03;;;;;;;;;;5012284;28;20025;-86
2022/05/20 03:41:44;;;;;;;8.20;6.97;;;;;;;;;;5014634;28;20388;-86
2022/05/20 03:44:11;;;;;;;9.98;6.97;;;;;;;;;;5013523;28;20033;-87
2022/05/20 03:46:45;;;;;;;8.75;6.38;;;;;;;;;;5013168;28;20542;-87
2022/05/20 03:49:12;;;;;;;10.40;6.90;;;;;;;;;;5012194;28;20029;-87
2022/05/20 03:51:38;;;;;;;10.63;7.28;;;;;;;;;;5013162;28;20053;-87
2022/05/20 03:54:04;;;;;;;8.38;6.68;;;;;;;;;;5012800;28;20030;-87
2022/05/20 03:56:30;;;;;;;12.02;7.05;;;;;;;;;;5012248;28;20125;-86
2022/05/20 03:58:56;;;;;;;8.98;6.53;;;;;;;;;;5012290;28;20029;-87
2022/05/20 04:04:07;;;;;;;13.40;7.15;;;;;;;;;;5014796;28;20128;-87
2022/05/20 04:06:33;;;;;;;9.25;6.55;;;;;;;;;;5014785;28;20088;-87
2022/05/20 04:09:00;;;;;;;14.15;7.07;;;;;;;;;;5013416;28;20018;-87
2022/05/20 04:11:26;;;;;;;11.32;6.95;;;;;;;;;;5013361;28;20026;-86
2022/05/20 04:13:53;;;;;;;12.05;7.85;;;;;;;;;;5012143;28;20034;-87
2022/05/20 04:16:19;;;;;;;11.27;7.82;;;;;;;;;;5012877;28;20042;-88
2022/05/20 04:18:45;;;;;;;9.57;7.05;;;;;;;;;;5013128;28;20041;-88
2022/05/20 04:21:12;;;;;;;9.93;7.50;;;;;;;;;;5013408;28;20029;-87
2022/05/20 04:23:38;;;;;;;9.13;7.13;;;;;;;;;;5012875;28;20026;-88
2022/05/20 04:26:04;;;;;;;10.23;7.43;;;;;;;;;;5014257;28;20095;-88
2022/05/20 04:28:31;;;;;;;12.80;7.13;;;;;;;;;;5014991;28;20033;-87
2022/05/20 04:30:58;;;;;;;11.85;7.93;;;;;;;;;;5012424;28;20037;-88
2022/05/20 04:33:24;;;;;;;8.02;6.78;;;;;;;;;;5012875;28;20396;-87
2022/05/20 04:35:50;;;;;;;8.98;7.25;;;;;;;;;;5012762;28;20038;-88
2022/05/20 04:38:17;;;;;;;15.38;8.23;;;;;;;;;;5025182;28;20030;-88
2022/05/20 04:40:42;;;;;;;10.82;7.47;;;;;;;;;;5035285;28;20022;-90
2022/05/20 04:48:38;;;;;;;9.90;7.25;;;;;;;;;;5037094;28;20056;-90
2022/05/20 04:51:04;;;;;;;11.70;7.70;;;;;;;;;;5036224;28;20022;-90
2022/05/20 04:56:20;;;;;;;9.95;7.30;;;;;;;;;;5009323;28;20018;-89
2022/05/20 04:58:46;;;;;;;15.00;7.55;;;;;;;;;;5036612;28;20038;-89
2022/05/20 05:01:12;;;;;;;11.07;7.07;;;;;;;;;;5036894;28;20033;-89
2022/05/20 05:03:38;;;;;;;16.30;8.07;;;;;;;;;;5037650;28;20018;-89
2022/05/20 05:06:04;;;;;;;13.40;8.88;;;;;;;;;;5037731;28;20017;-89
2022/05/20 05:08:30;;;;;;;8.95;7.78;;;;;;;;;;5037473;28;20034;-89
2022/05/20 05:10:56;;;;;;;12.00;8.50;;;;;;;;;;5036898;28;20025;-88
2022/05/20 05:13:22;;;;;;;9.65;8.40;;;;;;;;;;5037329;28;20021;-89
2022/05/20 05:15:48;;;;;;;9.38;7.95;;;;;;;;;;5036953;28;20033;-88
2022/05/20 05:18:14;;;;;;;8.65;7.68;;;;;;;;;;5037362;28;20073;-89
2022/05/20 05:20:45;;;;;;;9.82;7.00;;;;;;;;;;5037461;28;20017;-89
2022/05/20 05:23:12;;;;;;;9.70;7.50;;;;;;;;;;5037576;28;20025;-88
2022/05/20 05:25:39;;;;;;;11.00;7.55;;;;;;;;;;5022184;28;20033;-87
2022/05/20 05:28:05;;;;;;;9.18;7.63;;;;;;;;;;5026705;28;20038;-89
2022/05/20 05:30:31;;;;;;;10.82;7.57;;;;;;;;;;5041343;28;20013;-89
2022/05/20 05:32:57;;;;;;;9.05;7.30;;;;;;;;;;5056583;28;20018;-89
2022/05/20 05:35:25;;;;;;;8.27;7.00;;;;;;;;;;5059313;23;20059;-86
2022/05/20 05:37:51;;;;;;;10.85;7.03;;;;;;;;;;5044451;28;20080;-85
2022/05/20 05:40:19;;;;;;;9.27;8.02;;;;;;;;;;5062421;28;20037;-84
2022/05/20 05:42:45;;;;;;;9.63;8.18;;;;;;;;;;5057238;28;20100;-85
2022/05/20 05:45:13;;;;;;;10.57;8.27;;;;;;;;;;5067618;28;20047;-88
2022/05/20 05:47:39;;;;;;;9.35;7.53;;;;;;;;;;5075799;28;20430;-86
2022/05/20 05:50:05;;;;;;;9.95;7.97;;;;;;;;;;5080422;28;20482;-89
2022/05/20 05:52:31;;;;;;;10.75;8.35;;;;;;;;;;5073968;28;20081;-87
2022/05/20 05:54:57;;;;;;;9.48;8.07;;;;;;;;;;5075150;28;20060;-87
2022/05/20 05:57:23;;;;;;;9.50;7.85;;;;;;;;;;5069715;28;20047;-88
2022/05/20 05:59:49;;;;;;;11.45;8.90;;;;;;;;;;5080570;28;20037;-88
2022/05/20 06:02:15;;;;;;;10.93;7.75;;;;;;;;;;5067828;28;20104;-88
2022/05/20 06:04:41;;;;;;;12.70;8.35;;;;;;;;;;5082729;28;20021;-87
2022/05/20 06:07:14;;;;;;;9.80;8.75;;;;;;;;;;5071719;28;20025;-87
2022/05/20 06:09:46;;;;;;;10.63;8.65;;;;;;;;;;5073309;28;20023;-88
2022/05/20 06:12:14;;;;;;;10.65;8.32;;;;;;;;;;5070078;28;20482;-87
2022/05/20 06:14:40;;;;;;;11.18;8.48;;;;;;;;;;5081730;28;20039;-87
2022/05/20 06:20:03;;;;;;;10.32;9.10;;;;;;;;;;5075016;28;20044;-87
2022/05/20 06:22:29;;;;;;;15.05;9.07;;;;;;;;;;5077579;28;20039;-87
2022/05/20 06:55:59;;;;;;;14.73;8.27;;;;;;;;;;5073761;28;20078;-85
2022/05/20 06:58:25;;;;;;;8.48;6.25;;;;;;;;;;5082843;28;20029;-86
2022/05/20 07:00:51;;;;;;;7.68;5.00;;;;;;;;;;5084552;28;20036;-87
2022/05/20 07:03:19;;;;;;;8.38;5.05;;;;;;;;;;5085708;28;20024;-85
2022/05/20 07:05:46;;;;;;;15.93;5.32;;;;;;;;;;5084688;28;20017;-85
2022/05/20 07:08:12;;;;;;;13.43;5.45;;;;;;;;;;5084598;28;20084;-86
2022/05/20 07:10:38;;;;;;;6.72;4.75;;;;;;;;;;5084385;28;20044;-85
2022/05/20 07:13:04;;;;;;;9.55;4.78;;;;;;;;;;5085915;28;20103;-84
2022/05/20 07:15:30;;;;;;;11.88;4.80;;;;;;;;;;5083683;28;20028;-85
2022/05/20 07:17:56;;;;;;;8.82;5.13;;;;;;;;;;5080611;28;20035;-84
2022/05/20 07:20:22;;;;;;;11.07;4.97;;;;;;;;;;5081736;28;20024;-82
2022/05/20 07:22:48;;;;;;;6.72;4.63;;;;;;;;;;5080224;28;20046;-82
2022/05/20 07:25:14;;;;;;;9.48;4.50;;;;;;;;;;5081699;28;20020;-82
2022/05/20 07:27:40;;;;;;;8.38;4.97;;;;;;;;;;5081294;28;20389;-82
2022/05/20 07:30:07;;;;;;;9.48;5.00;;;;;;;;;;5079629;28;20522;-82
2022/05/20 07:32:33;;;;;;;6.53;4.82;;;;;;;;;;5079531;28;20032;-82
2022/05/20 07:34:59;;;;;;;10.52;4.85;;;;;;;;;;5079368;28;20028;-82
2022/05/20 07:37:25;;;;;;;7.50;4.75;;;;;;;;;;5078801;28;20032;-82
2022/05/20 07:39:51;;;;;;;8.63;4.75;;;;;;;;;;5074612;28;20032;-84
2022/05/20 07:42:17;;;;;;;12.82;4.90;;;;;;;;;;5074906;28;20086;-83
2022/05/20 07:44:43;;;;;;;12.65;4.03;;;;;;;;;;5054578;28;20478;-84
2022/05/20 07:47:09;;;;;;;9.02;3.72;;;;;;;;;;5068546;28;20478;-84
2022/05/20 07:49:35;;;;;;;12.35;4.50;;;;;;;;;;5064645;28;20037;-84
2022/05/20 07:52:03;;;;;;;6.50;3.47;;;;;;;;;;5066771;28;20092;-84
2022/05/20 07:54:31;;;;;;;7.68;3.47;;;;;;;;;;5086293;28;20032;-84
2022/05/20 07:57:00;;;;;;;5.47;3.13;;;;;;;;;;5097508;28;20028;-83
2022/05/20 07:59:30;;;;;;;7.60;3.60;;;;;;;;;;5096624;28;20023;-83
2022/05/20 08:01:57;;;;;;;8.30;3.75;;;;;;;;;;5096980;28;20013;-84
2022/05/20 08:07:11;;;;;;;6.78;3.42;;;;;;;;;;5001490;28;20089;-85
2022/05/20 08:09:37;;;;;;;6.05;3.60;;;;;;;;;;5016404;28;20033;-86
2022/05/20 08:12:03;;;;;;;6.30;3.47;;;;;;;;;;5022716;28;20499;-85
2022/05/20 08:14:29;;;;;;;5.43;3.10;;;;;;;;;;5028171;28;20032;-85
2022/05/20 08:16:59;;;;;;;7.20;2.95;;;;;;;;;;5041902;28;20033;-85
2022/05/20 08:19:25;;;;;;;7.82;3.05;;;;;;;;;;5043787;28;20068;-85
2022/05/20 08:21:51;;;;;;;8.48;3.90;;;;;;;;;;5041402;28;20018;-85
2022/05/20 08:24:18;;;;;;;6.10;3.15;;;;;;;;;;5042512;28;20036;-85
2022/05/20 08:26:43;;;;;;;7.32;2.75;;;;;;;;;;5028956;28;20045;-84
2022/05/20 08:29:12;;;;;;;7.22;3.08;;;;;;;;;;5036116;28;20041;-84
2022/05/20 08:31:38;;;;;;;9.88;3.10;;;;;;;;;;5039749;28;20398;-85
2022/05/20 08:34:05;;;;;;;9.57;3.60;;;;;;;;;;5038382;28;20033;-84
2022/05/20 08:36:31;;;;;;;9.70;3.17;;;;;;;;;;5039373;28;20029;-84
2022/05/20 08:38:57;;;;;;;8.30;3.15;;;;;;;;;;5028713;28;20082;-84
2022/05/20 08:41:27;;;;;;;9.60;2.75;;;;;;;;;;5029369;28;20044;-83
2022/05/20 08:43:53;;;;;;;8.82;2.53;;;;;;;;;;5038032;28;20025;-82
2022/05/20 08:46:21;;;;;;;8.85;2.97;;;;;;;;;;5043777;28;20030;-85
2022/05/20 08:48:49;;;;;;;13.07;2.83;;;;;;;;;;5044661;28;20056;-84
2022/05/20 08:51:15;;;;;;;7.70;2.92;;;;;;;;;;5044800;28;20034;-84
2022/05/20 08:53:44;;;;;;;18.13;2.90;;;;;;;;;;5039960;28;20037;-85
2022/05/20 08:56:12;;;;;;;7.57;2.38;;;;;;;;;;5041692;28;20032;-84
2022/05/20 08:58:44;;;;;;;15.77;2.97;;;;;;;;;;5040702;28;20029;-84
2022/05/20 09:01:10;;;;;;;8.52;2.55;;;;;;;;;;5038924;28;20021;-83
2022/05/20 09:03:36;;;;;;;3.30;2.05;;;;;;;;;;5041490;28;20530;-83
2022/05/20 09:06:13;;;;;;;11.55;2.72;;;;;;;;;;5038587;28;20119;-84
2022/05/20 09:08:40;;;;;;;8.93;2.38;;;;;;;;;;5040642;28;20066;-84
2022/05/20 09:11:11;;;;;;;10.07;2.67;;;;;;;;;;5041744;28;20056;-85
2022/05/20 09:16:29;;;;;;;16.45;2.88;;;;;;;;;;5039727;28;20574;-83
2022/05/20 09:19:09;;;;;;;8.07;2.38;;;;;;;;;;5031932;28;20044;-84
2022/05/20 09:21:38;;;;;;;8.27;2.90;;;;;;;;;;5034875;28;20017;-85
2022/05/20 09:24:08;;;;;;;17.15;2.80;;;;;;;;;;5025913;28;20087;-84
2022/05/20 09:26:36;;;;;;;8.13;2.30;;;;;;;;;;5024882;28;20037;-86
2022/05/20 09:29:34;;;;;;;5.85;2.38;;;;;;;;;;5014349;28;20026;-88
2022/05/20 09:32:03;;;;;;;9.68;3.30;;;;;;;;;;5012143;28;20042;-89
2022/05/20 09:34:35;;;;;;;7.80;2.25;;;;;;;;;;5012267;28;20035;-87
2022/05/20 09:37:05;;;;;;;7.80;2.50;;;;;;;;;;5012245;28;20033;-86
2022/05/20 09:39:32;;;;;;;14.52;3.00;;;;;;;;;;5011518;28;20026;-85
2022/05/20 09:42:04;;;;;;;12.32;2.70;;;;;;;;;;5012080;28;20117;-85
2022/05/20 09:44:37;;;;;;;12.63;2.88;;;;;;;;;;5027219;28;20025;-86
2022/05/20 09:47:24;;;;;;;9.45;2.47;;;;;;;;;;5025215;28;20061;-86
2022/05/20 09:49:54;;;;;;;10.25;2.90;;;;;;;;;;5014702;28;20116;-88
2022/05/20 09:52:20;;;;;;;;;;;;;;;;;;5031580;28;20029;-88
2022/05/20 09:55:04;;;;;;;9.32;3.00;;;;;;;;;;5091624;23;19953;-88
2022/05/20 09:57:42;;;;;;;10.13;2.55;;;;;;;;;;5022240;28;20060;-88
2022/05/20 10:00:34;;;;;;;9.07;2.78;;;;;;;;;;5032684;28;20029;-88
2022/05/20 10:03:13;;;;;;;6.40;2.50;;;;;;;;;;5019522;28;20041;-89
2022/05/20 10:05:51;;;;;;;9.48;2.80;;;;;;;;;;5046881;28;20021;-89
2022/05/20 10:08:27;;;;;;;12.27;2.80;;;;;;;;;;5046203;28;20120;-89
2022/05/20 10:11:05;;;;;;;8.60;2.55;;;;;;;;;;5049956;28;20033;-88
2022/05/20 10:13:39;;;;;;;9.77;2.65;;;;;;;;;;5050060;28;20438;-86
2022/05/20 10:16:05;;;;;;;10.05;2.40;;;;;;;;;;5052412;28;20025;-86
2022/05/20 10:18:49;;;;;;;11.80;3.35;;;;;;;;;;5054956;28;20085;-88
2022/05/20 10:21:49;;;;;;;9.45;2.78;;;;;;;;;;5052061;28;20057;-87
2022/05/20 10:24:42;;;;;;;14.60;2.60;;;;;;;;;;5054854;28;20021;-87
2022/05/20 10:27:43;;;;;;;9.38;3.28;;;;;;;;;;5018063;28;20032;-87
2022/05/20 10:33:21;;;;;;;9.85;2.97;;;;;;;;;;5037511;28;20060;-86
2022/05/20 10:36:13;;;;;;;9.93;3.60;;;;;;;;;;5052552;28;20108;-85
2022/05/20 10:38:58;;;;;;;4.07;2.13;;;;;;;;;;5052113;28;20433;-86
2022/05/20 10:41:48;;;;;;;10.05;2.75;;;;;;;;;;5059367;28;20052;-86
2022/05/20 10:50:29;;;;;;;10.80;2.60;;;;;;;;;;5038107;28;20548;-86
2022/05/20 10:53:04;;;;;;;10.73;2.70;;;;;;;;;;5056244;28;20478;-87
2022/05/20 10:56:20;;;;;;;;;;;;;;;;;;;;;
2022/05/20 10:59:09;;;;;;;9.80;2.97;;;;;;;;;;5059983;28;20080;-86
2022/05/20 11:02:04;;;;;;;;;;;;;;;;;;;;;
2022/05/20 11:04:49;;;;;;;12.13;2.70;;;;;;;;;;5058061;28;20129;-85
2022/05/20 11:07:30;;;;;;;13.32;3.03;;;;;;;;;;5056151;28;20487;-86
2022/05/20 11:10:08;;;;;;;4.18;2.35;;;;;;;;;;5056224;28;20021;-85
2022/05/20 11:12:36;;;;;;;7.90;2.88;;;;;;;;;;5057616;28;20443;-85
2022/05/20 11:15:23;;;;;;;6.35;2.67;;;;;;;;;;5057100;28;20609;-85
2022/05/20 11:18:06;;;;;;;10.00;2.00;;;;;;;;;;5035801;28;20036;-85
2022/05/20 11:20:53;;;;;;;9.23;2.85;;;;;;;;;;5036591;28;20067;-85
2022/05/20 11:23:25;;;;;;;7.50;2.97;;;;;;;;;;5033658;28;20169;-86
2022/05/20 11:26:23;;;;;;;;;;;;;;;;;;;;;
2022/05/20 11:29:21;;;;;;;8.75;2.47;;;;;;;;;;5035639;28;20037;-86
2022/05/20 11:32:09;;;;;;;10.63;2.83;;;;;;;;;;5032783;28;20041;-86
2022/05/20 11:42:40;;;;;;;7.05;2.80;;;;;;;;;;5051736;28;20105;-90
2022/05/20 11:45:17;;;;;;;9.07;2.70;;;;;;;;;;5052460;28;20044;-91
2022/05/20 11:47:55;;;;;;;12.75;3.40;;;;;;;;;;5054519;28;20021;-90
2022/05/20 11:50:33;;;;;;;8.23;2.55;;;;;;;;;;5053614;28;20050;-91
2022/05/20 11:53:07;;;;;;;9.38;2.92;;;;;;;;;;5053405;28;20021;-90
2022/05/20 11:55:42;;;;;;;6.78;2.75;;;;;;;;;;5058290;28;20028;-91
2022/05/20 11:58:16;;;;;;;15.98;2.38;;;;;;;;;;5054869;28;20164;-90
2022/05/20 12:00:48;;;;;;;6.72;2.85;;;;;;;;;;5054743;28;20025;-91
2022/05/20 12:06:40;;;;;;;8.75;2.75;;;;;;;;;;5136667;22;20071;-90
2022/05/20 12:09:33;;;;;;;7.50;2.60;;;;;;;;;;5049970;28;20093;-89
2022/05/20 12:12:25;;;;;;;9.05;2.40;;;;;;;;;;5032263;28;20040;-89
2022/05/20 12:14:54;;;;;;;12.60;2.80;;;;;;;;;;5035107;28;20025;-89
2022/05/20 12:17:43;;;;;;;7.00;2.50;;;;;;;;;;5064081;28;20039;-89
2022/05/20 12:26:14;;;;;;;8.68;2.55;;;;;;;;;;5073029;28;20020;-89
2022/05/20 12:28:50;;;;;;;10.68;2.55;;;;;;;;;;5073879;28;20530;-89
2022/05/20 12:31:40;;;;;;;7.68;2.80;;;;;;;;;;5072961;28;20123;-89
2022/05/20 12:34:27;;;;;;;8.55;2.50;;;;;;;;;;5074085;28;20024;-89
2022/05/20 12:37:03;;;;;;;9.45;2.83;;;;;;;;;;5070257;28;20158;-89
2022/05/20 12:39:48;;;;;;;11.35;2.90;;;;;;;;;;5073007;28;20120;-88
2022/05/20 12:42:26;;;;;;;8.88;2.90;;;;;;;;;;5073573;28;20021;-89
2022/05/20 12:44:56;;;;;;;9.25;2.53;;;;;;;;;;5090347;28;20075;-87
2022/05/20 12:47:22;;;;;;;10.93;3.22;;;;;;;;;;5081737;28;20013;-88
2022/05/20 12:49:48;;;;;;;21.08;2.95;;;;;;;;;;5091886;28;20012;-90
2022/05/20 12:52:14;;;;;;;16.77;2.67;;;;;;;;;;5091825;28;20020;-92
2022/05/20 12:54:52;;;;;;;8.63;2.58;;;;;;;;;;5094029;28;20029;-91
2022/05/20 12:57:31;;;;;;;7.00;3.08;;;;;;;;;;5095467;28;20088;-90
2022/05/20 13:00:04;;;;;;;8.07;2.38;;;;;;;;;;5094542;28;20044;-91
2022/05/20 13:02:42;;;;;;;11.65;2.75;;;;;;;;;;5099203;28;20035;-91
2022/05/20 13:05:27;;;;;;;9.48;2.83;;;;;;;;;;5116283;28;20032;-94
2022/05/20 13:07:56;;;;;;;7.82;2.05;;;;;;;;;;5116193;28;20084;-92
2022/05/20 13:10:32;;;;;;;10.10;2.88;;;;;;;;;;5114555;28;20018;-91
2022/05/20 13:13:04;;;;;;;15.25;2.47;;;;;;;;;;5097467;28;20016;-92
2022/05/20 13:15:30;;;;;;;5.25;2.13;;;;;;;;;;5096953;28;20042;-93
2022/05/20 13:18:19;;;;;;;15.07;2.47;;;;;;;;;;5088528;28;20017;-91
2022/05/20 13:20:45;;;;;;;8.85;2.65;;;;;;;;;;5093356;28;20031;-91
2022/05/20 13:23:16;;;;;;;4.60;2.42;;;;;;;;;;5095548;28;20017;-91
2022/05/20 13:25:51;;;;;;;6.40;2.30;;;;;;;;;;5115657;28;20032;-90
2022/05/20 13:28:22;;;;;;;15.75;2.50;;;;;;;;;;5100025;28;20060;-90
2022/05/20 13:36:51;;;;;;;10.13;2.60;;;;;;;;;;5098483;28;20062;-88
2022/05/20 13:39:18;;;;;;;8.80;2.78;;;;;;;;;;5098215;28;20037;-92
2022/05/20 13:41:45;;;;;;;3.55;2.33;;;;;;;;;;5098230;28;20013;-90
2022/05/20 13:44:11;;;;;;;7.72;2.78;;;;;;;;;;5098114;28;20044;-89
2022/05/20 13:49:28;;;;;;;7.23;2.17;;;;;;;;;;5102179;28;20032;-87
2022/05/20 13:51:54;;;;;;;6.65;2.45;;;;;;;;;;5101815;28;20251;-87
2022/05/20 13:54:23;;;;;;;10.25;2.33;;;;;;;;;;5101837;28;20027;-90
2022/05/20 13:56:50;;;;;;;7.53;2.83;;;;;;;;;;5101987;28;20081;-87
2022/05/20 13:59:29;;;;;;;12.68;2.90;;;;;;;;;;5102202;28;20024;-86
2022/05/20 14:02:11;;;;;;;5.63;2.47;;;;;;;;;;5102031;28;20029;-87
2022/05/20 14:04:42;;;;;;;5.28;2.25;;;;;;;;;;5102155;28;20046;-87
2022/05/20 14:07:09;;;;;;;;;;;;;;;;;;5102011;28;20115;-88
2022/05/20 14:09:35;;;;;;;9.57;2.90;;;;;;;;;;5102120;28;19899;-88
2022/05/20 14:12:02;;;;;;;9.73;3.15;;;;;;;;;;5101762;28;20031;-88
2022/05/20 14:14:30;;;;;;;8.15;2.72;;;;;;;;;;5099370;28;20024;-87
2022/05/20 14:17:00;;;;;;;10.18;3.30;;;;;;;;;;5075582;28;20447;-87
2022/05/20 14:19:29;;;;;;;6.57;2.92;;;;;;;;;;5075627;28;20541;-87
2022/05/20 14:22:06;;;;;;;6.35;3.15;;;;;;;;;;5075135;28;20024;-88
2022/05/20 14:24:37;;;;;;;7.35;2.92;;;;;;;;;;5076380;28;20040;-88
2022/05/20 14:27:03;;;;;;;5.70;2.63;;;;;;;;;;5076707;28;20366;-89
2022/05/20 14:29:32;;;;;;;9.38;3.25;;;;;;;;;;5076821;28;20028;-88
2022/05/20 14:32:08;;;;;;;10.77;3.03;;;;;;;;;;5075011;28;20062;-89
2022/05/20 14:34:34;;;;;;;9.23;3.00;;;;;;;;;;5074889;28;20135;-88
2022/05/20 14:37:19;;;;;;;8.35;3.13;;;;;;;;;;5074472;28;20111;-89
2022/05/20 14:39:47;;;;;;;5.30;2.85;;;;;;;;;;5074488;28;20377;-88
2022/05/20 14:42:31;;;;;;;11.80;3.67;;;;;;;;;;5076317;28;20078;-87
2022/05/20 14:45:14;;;;;;;6.88;2.92;;;;;;;;;;5074969;28;20024;-87
2022/05/20 14:47:42;;;;;;;8.55;3.50;;;;;;;;;;5070621;28;20031;-88
2022/05/20 14:50:11;;;;;;;5.43;2.90;;;;;;;;;;5072433;28;20025;-90
2022/05/20 14:52:43;;;;;;;11.38;3.45;;;;;;;;;;5072491;28;20056;-88
2022/05/20 14:55:14;;;;;;;11.73;3.30;;;;;;;;;;5074892;28;20025;-90
2022/05/20 14:57:40;;;;;;;10.50;3.35;;;;;;;;;;5072193;28;20509;-88
2022/05/20 15:00:09;;;;;;;9.07;3.22;;;;;;;;;;5072995;28;20036;-89
2022/05/20 15:02:35;;;;;;;7.72;3.33;;;;;;;;;;5076736;28;20359;-88
2022/05/20 15:05:01;;;;;;;10.20;3.05;;;;;;;;;;5094581;28;20024;-88
2022/05/20 15:07:28;;;;;;;23.45;3.00;;;;;;;;;;5091802;28;20405;-89
2022/05/20 15:09:55;;;;;;;6.50;2.45;;;;;;;;;;5073401;28;20494;-89
2022/05/20 15:12:26;;;;;;;8.30;2.75;;;;;;;;;;5063289;28;20056;-90
2022/05/20 15:14:57;;;;;;;7.93;2.92;;;;;;;;;;5063965;28;20020;-89
2022/05/20 15:17:27;;;;;;;9.77;2.72;;;;;;;;;;5069197;28;20017;-88
2022/05/20 15:19:53;;;;;;;12.48;3.15;;;;;;;;;;5057196;28;20060;-89
2022/05/20 15:22:31;;;;;;;;;;;;;;;;;;;;;
2022/05/20 15:25:07;;;;;;;12.63;3.10;;;;;;;;;;5057381;28;20059;-89
2022/05/20 15:28:47;;;;;;;7.18;2.95;;;;;;;;;;5053438;28;20112;-90
2022/05/20 15:42:46;;;;;;;8.05;3.08;;;;;;;;;;5697407;23;20052;-89
2022/05/20 15:44:56;;;;;;;10.75;2.60;;;;;;;;;;5047732;28;20710;-88
2022/05/20 15:47:31;;;;;;;9.38;2.72;;;;;;;;;;5074028;28;20024;-88
2022/05/20 15:50:01;;;;;;;7.13;2.13;;;;;;;;;;5073892;28;20017;-89
2022/05/20 15:52:29;;;;;;;10.77;2.72;;;;;;;;;;5072682;28;20174;-89
2022/05/20 15:58:17;;;;;;;5.10;2.28;;;;;;;;;;5073960;28;20054;-89
2022/05/20 16:01:07;;;;;;;8.75;2.80;;;;;;;;;;5072454;28;20524;-89
2022/05/20 16:03:33;;;;;;;5.43;2.72;;;;;;;;;;5055453;28;20033;-90
2022/05/20 16:05:59;;;;;;;8.27;2.10;;;;;;;;;;5072919;28;20021;-90
2022/05/20 16:08:25;;;;;;;6.63;2.28;;;;;;;;;;5072865;28;20123;-88
2022/05/20 16:10:52;;;;;;;6.30;2.35;;;;;;;;;;5071590;28;20025;-87
2022/05/20 16:13:19;;;;;;;17.20;3.75;;;;;;;;;;5072665;28;20029;-87
2022/05/20 16:15:46;;;;;;;9.88;2.75;;;;;;;;;;5069911;28;20024;-88
2022/05/20 16:18:18;;;;;;;10.73;2.42;;;;;;;;;;5063322;28;20033;-88
2022/05/20 16:20:49;;;;;;;17.52;3.25;;;;;;;;;;5060585;28;20017;-88
2022/05/20 16:26:26;;;;;;;12.65;3.05;;;;;;;;;;5018327;28;20041;-88
2022/05/20 16:28:52;;;;;;;16.50;2.92;;;;;;;;;;5051103;28;20120;-88
2022/05/20 16:31:21;;;;;;;10.00;2.97;;;;;;;;;;5053660;28;20048;-88
2022/05/20 16:33:59;;;;;;;11.07;2.60;;;;;;;;;;5055971;28;20049;-91
2022/05/20 16:36:26;;;;;;;7.80;2.22;;;;;;;;;;5055831;28;20119;-92
2022/05/20 16:38:56;;;;;;;7.18;2.42;;;;;;;;;;5059776;28;20028;-91
2022/05/20 16:41:22;;;;;;;10.13;2.90;;;;;;;;;;5061597;28;20032;-90
2022/05/20 16:44:07;;;;;;;5.82;2.38;;;;;;;;;;5059554;28;20037;-90
2022/05/20 16:46:40;;;;;;;4.72;2.15;;;;;;;;;;5058240;28;20025;-91
2022/05/20 16:49:43;;;;;;;8.40;3.10;;;;;;;;;;5053559;28;20064;-90
2022/05/20 16:52:17;;;;;;;7.75;2.53;;;;;;;;;;5037107;28;20037;-91
2022/05/20 16:54:52;;;;;;;8.70;2.72;;;;;;;;;;5063163;28;20055;-88